• Join FlightAware (Why Join?)
  • Login
  • US Flag 
03:39AM EDT


 

Airport Tracker/Info


-or-


 

Live Flight TrackerFlight Track Log ✈ OPT438 ✈ 16-Feb-2014 ✈ KPBI - KPWK

Flight Track Log - Related Links

Times and Time Zones

All times are in EST time to prevent confusion due to time zone crossing. See the OPT438 flight status page for this flight to view local times or setup timezone preferences in your user account.

Time Position Orientation Groundspeed Altitude Reporting Facility
EST Latitude Longitude Course Direction KTS MPH feet Rate Location/Type
12:47PM 26.7442 -79.9972 336° Northwest 268 308 6,300  Level Miami Center
12:48PM 26.8144 -80.0339 335° Northwest 269 310 9,000 1,800 Climbing Miami Center
12:49PM 26.8314 -80.1228 282° West 260 299 10,000 1,020 Climbing Miami Center
12:50PM 26.8458 -80.2139 280° West 286 329 11,100 1,200 Climbing Miami Center
12:51PM 26.8732 -80.3283 336° Northwest  Level FlightAware Approximate
12:51PM 26.8586 -80.2958 280° West 299 344 12,400  Level Miami Center
12:52PM 26.9158 -80.3533 318° Northwest 274 315 13,600 1,200 Climbing Miami Center
12:53PM 27.0067 -80.3958 337° Northwest 286 329 14,800 1,260 Climbing Miami Center
12:54PM 27.0892 -80.4356 337° Northwest 311 358 16,200 1,380 Climbing Miami Center
12:55PM 27.1739 -80.4733 338° Northwest 329 379 17,600 1,260 Climbing Miami Center
12:56PM 27.2544 -80.5108 338° Northwest 334 384 18,800 1,260 Climbing Miami Center
12:57PM 27.3453 -80.5511 339° North 334 384 20,200 1,260 Climbing Miami Center
12:58PM 27.4361 -80.5914 339° North 339 390 21,400 1,080 Climbing Miami Center
12:59PM 27.5289 -80.6342 338° Northwest 349 402 22,400 900 Climbing Miami Center
01:00PM 27.6258 -80.6797 337° Northwest 359 413 23,300 900 Climbing Miami Center
01:01PM 27.7228 -80.7228 339° North 370 426 24,300 900 Climbing Miami Center
01:02PM 27.8236 -80.7708 337° Northwest 375 432 25,200 900 Climbing Miami Center
01:03PM 27.9372 -80.8192 339° North 386 444 26,200 960 Climbing Miami Center
01:04PM 28.0361 -80.8675 337° Northwest 391 450 27,200 900 Climbing Miami Center
01:05PM 28.1369 -80.9111 339° North 391 450 28,100 900 Climbing Miami Center
01:06PM 28.2381 -80.9594 337° Northwest 391 450 29,100 900 Climbing Miami Center
01:07PM 28.3389 -81.0056 338° Northwest 391 450 30,000 900 Climbing Miami Center
01:08PM 28.4378 -81.0517 338° Northwest 391 450 31,000 900 Climbing Miami Center
01:09PM 28.5386 -81.0981 338° Northwest 391 450 31,900 900 Climbing Miami Center
01:10PM 28.6353 -81.1419 338° Northwest 391 450 32,800 900 Climbing Miami Center
01:10PM 28.6894 -81.1744 332° Northwest 384 442 33,300 900 Climbing Jacksonville Center
01:11PM 28.7775 -81.2108 340° North 374 430 34,200 900 Climbing Jacksonville Center
01:12PM 28.8742 -81.2567 337° Northwest 374 430 35,200 900 Climbing Jacksonville Center
01:13PM 28.9686 -81.3000 338° Northwest 374 430 36,100 900 Climbing Jacksonville Center
01:14PM 29.0653 -81.3461 337° Northwest 374 430 37,100 900 Climbing Jacksonville Center
01:15PM 29.1575 -81.3875 339° North 369 425 37,900 720 Climbing Jacksonville Center
01:16PM 29.2478 -81.4314 337° Northwest 363 418 38,600 540 Climbing Jacksonville Center
01:17PM 29.3422 -81.4753 338° Northwest 358 412 39,000 180 Climbing Jacksonville Center
01:18PM 29.4367 -81.5214 337° Northwest 358 412 39,000  Level Jacksonville Center
01:19PM 29.5372 -81.5703 337° Northwest 368 423 39,000  Level Jacksonville Center
01:20PM 29.6381 -81.6167 338° Northwest 378 435 39,000  Level Jacksonville Center
01:21PM 29.7386 -81.6656 337° Northwest 383 441 39,000  Level Jacksonville Center
01:22PM 29.8372 -81.7144 337° Northwest 383 441 39,000  Level Jacksonville Center
01:23PM 29.9400 -81.7611 339° North 383 441 39,000  Level Jacksonville Center
01:24PM 30.0511 -81.8078 340° North 383 441 39,000  Level Jacksonville Center
01:25PM 30.1497 -81.8597 336° Northwest 383 441 39,000  Level Jacksonville Center
01:26PM 30.2481 -81.9019 340° North 383 441 39,000  Level Jacksonville Center
01:27PM 30.3486 -81.9442 340° North 383 441 39,000  Level Jacksonville Center
01:28PM 30.4469 -81.9889 339° North 383 441 39,000  Level Jacksonville Center
01:29PM 30.5475 -82.0292 341° North 383 441 39,000  Level Jacksonville Center
01:30PM 30.6481 -82.0789 337° Northwest 383 441 39,000  Level Jacksonville Center
01:31PM 30.7464 -82.1192 341° North 378 435 39,000  Level Jacksonville Center
01:32PM 30.8450 -82.1642 339° North 373 429 39,000  Level Jacksonville Center
01:33PM 30.9453 -82.2047 341° North 373 429 39,000  Level Jacksonville Center
01:34PM 31.0436 -82.2500 338° Northwest 373 429 39,000 -60 Level Jacksonville Center
01:35PM 31.1419 -82.2931 339° North 373 429 38,900  Descending Jacksonville Center
01:36PM 31.2425 -82.3336 341° North 373 429 39,000  Climbing Jacksonville Center
01:37PM 31.3386 -82.3769 339° North 373 429 39,000  Level Jacksonville Center
01:38PM 31.4264 -82.4106 342° North 373 429 39,000  Level Jacksonville Center
01:39PM 31.5247 -82.4514 341° North 367 422 39,000  Level Jacksonville Center
01:41PM 31.6997 -82.5303 339° North 376 433 39,000  Level Atlanta Center
01:42PM 31.7983 -82.5753 339° North 376 433 39,000  Level Atlanta Center
01:43PM 31.8950 -82.6178 340° North 371 427 39,000  Level Atlanta Center
01:44PM 31.9894 -82.6603 339° North 371 427 39,000 -180 Level Atlanta Center
01:45PM 32.0836 -82.7006 340° North 371 427 38,700 -420 Descending Atlanta Center
01:46PM 32.1803 -82.7431 340° North 371 427 38,200 -360 Descending Atlanta Center
01:47PM 32.2767 -82.7858 339° North 371 427 38,000 -120 Descending Atlanta Center
01:48PM 32.3731 -82.8289 339° North 371 427 38,000  Level Atlanta Center
01:49PM 32.4675 -82.8719 339° North 371 427 38,000  Level Atlanta Center
01:50PM 32.5700 -82.9172 340° North 366 421 38,000  Level Atlanta Center
01:51PM 32.6581 -82.9581 339° North 366 421 38,000  Level Atlanta Center
01:52PM 32.7525 -82.9989 340° North 366 421 38,000  Level Atlanta Center
01:53PM 32.8508 -83.0447 339° North 354 407 38,000  Level Atlanta Center
01:54PM 32.9472 -83.0883 339° North 354 407 38,000  Level Atlanta Center
01:55PM 33.0417 -83.1319 339° North 354 407 38,000  Level Atlanta Center
01:56PM 33.1253 -83.1731 338° Northwest 354 407 38,000  Level Atlanta Center
01:57PM 33.2194 -83.2169 339° North 354 407 38,000  Level Atlanta Center
01:58PM 33.3139 -83.2583 340° North 354 407 38,000  Level Atlanta Center
01:59PM 33.4100 -83.2997 340° North 362 417 38,000  Level Atlanta Center
02:00PM 33.5064 -83.3436 339° North 367 422 38,000  Level Atlanta Center
02:01PM 33.6025 -83.3878 339° North 367 422 38,000  Level Atlanta Center
02:02PM 33.7050 -83.4369 338° Northwest 372 428 38,000  Level Atlanta Center
02:03PM 33.8014 -83.4789 340° North 372 428 38,000  Level Atlanta Center
02:04PM 33.8975 -83.5208 340° North 372 428 38,000  Level Atlanta Center
02:05PM 33.9936 -83.5678 338° Northwest 367 422 38,000  Level Atlanta Center
02:06PM 34.0900 -83.6100 340° North 372 428 38,000  Level Atlanta Center
02:07PM 34.1819 -83.6519 339° North 372 428 38,000  Level Atlanta Center
02:08PM 34.2781 -83.6969 339° North 372 428 38,000  Level Atlanta Center
02:09PM 34.3719 -83.7394 340° North 372 428 38,000  Level Atlanta Center
02:10PM 34.4681 -83.7817 340° North 366 421 38,000  Level Atlanta Center
02:11PM 34.5600 -83.8294 337° Northwest 366 421 38,000  Level Atlanta Center
02:12PM 34.6561 -83.8722 340° North 361 415 38,000  Level Atlanta Center
02:13PM 34.7375 -83.9150 337° Northwest 356 410 38,000  Level Atlanta Center
02:14PM 34.8294 -83.9578 339° North 356 410 38,000  Level Atlanta Center
02:15PM 34.9233 -84.0033 338° Northwest 356 410 38,000  Level Atlanta Center
02:16PM 35.0153 -84.0464 339° North 356 410 38,000  Level Atlanta Center
02:17PM 35.1069 -84.0894 339° North 356 410 38,000  Level Atlanta Center
02:18PM 35.1986 -84.1353 338° Northwest 356 410 38,000  Level Atlanta Center
02:19PM 35.2883 -84.1761 340° North 356 410 38,000  Level Atlanta Center
02:20PM 35.3781 -84.2197 338° Northwest 356 410 38,000  Level Atlanta Center
02:21PM 35.4678 -84.2631 339° North 351 404 38,000  Level Atlanta Center
02:22PM 35.5572 -84.3067 338° Northwest 351 404 38,000  Level Atlanta Center
02:23PM 35.6450 -84.3481 339° North 346 398 38,000  Level Atlanta Center
02:24PM 35.7325 -84.3892 339° North 346 398 38,000  Level Atlanta Center
02:25PM 35.8219 -84.4306 339° North 341 392 38,000  Level Atlanta Center
02:27PM 35.9969 -84.5175 338° Northwest 342 394 38,000  Level Indianapolis Center
02:28PM 36.1033 -84.5689 339° North 343 395 38,000  Level Indianapolis Center
02:29PM 36.1919 -84.6122 338° Northwest 343 395 38,000  Level Indianapolis Center
02:30PM 36.2792 -84.6561 338° Northwest 343 395 38,000  Level Indianapolis Center
02:31PM 36.3669 -84.7000 338° Northwest 343 395 38,000  Level Indianapolis Center
02:32PM 36.4544 -84.7419 339° North 341 392 38,000  Level Indianapolis Center
02:33PM 36.5397 -84.7858 338° Northwest 338 389 38,000  Level Indianapolis Center
02:34PM 36.6253 -84.8311 337° Northwest 336 387 38,000  Level Indianapolis Center
02:35PM 36.7278 -84.8856 337° Northwest 336 387 38,000  Level Indianapolis Center
02:36PM 36.8122 -84.9314 337° Northwest 335 386 38,000  Level Indianapolis Center
02:37PM 36.8975 -84.9769 337° Northwest 335 386 38,000  Level Indianapolis Center
02:38PM 36.9828 -85.0247 336° Northwest 335 386 38,000  Level Indianapolis Center
02:39PM 37.0753 -85.0736 337° Northwest 334 384 38,000  Level Indianapolis Center
02:40PM 37.1603 -85.1206 336° Northwest 334 384 38,000  Level Indianapolis Center
02:41PM 37.2464 -85.1658 337° Northwest 334 384 38,000  Level Indianapolis Center
02:42PM 37.3314 -85.2128 336° Northwest 334 384 38,000  Level Indianapolis Center
02:43PM 37.4161 -85.2594 336° Northwest 334 384 38,000  Level Indianapolis Center
02:44PM 37.5011 -85.3053 337° Northwest 333 383 38,000  Level Indianapolis Center
02:45PM 37.5856 -85.3522 336° Northwest 333 383 38,000  Level Indianapolis Center
02:46PM 37.6886 -85.4067 337° Northwest 339 390 38,000  Level Indianapolis Center
02:47PM 37.7728 -85.4519 337° Northwest 337 388 38,000  Level Indianapolis Center
02:48PM 37.8433 -85.4931 335° Northwest 331 381 38,000 -120 Level Indianapolis Center
02:50PM 37.9414 -85.5506 335° Northwest 328 377 37,800 -780 Descending Indianapolis Center
02:51PM 38.0258 -85.5975 336° Northwest 327 376 36,500 -1,380 Descending Indianapolis Center
02:52PM 38.1117 -85.6431 337° Northwest 328 377 35,000 -1,260 Descending Indianapolis Center
02:53PM 38.1914 -85.6889 336° Northwest 323 372 34,000 -1,020 Descending Indianapolis Center
02:54PM 38.2742 -85.7356 336° Northwest 322 371 33,000 -1,020 Descending Indianapolis Center
02:55PM 38.3575 -85.7825 336° Northwest 323 372 32,000 -540 Descending Indianapolis Center
02:56PM 38.4417 -85.8303 336° Northwest 326 375 32,000  Level Indianapolis Center
02:57PM 38.5242 -85.8786 335° Northwest 326 375 32,000  Level Indianapolis Center
02:58PM 38.6253 -85.9336 337° Northwest 326 375 32,000 -420 Level Indianapolis Center
03:00PM 38.7908 -86.0292 336° Northwest 326 375 30,800 -660 Descending Indianapolis Center
03:01PM 38.8753 -86.0781 336° Northwest 328 377 30,000 -720 Descending Indianapolis Center
03:02PM 38.9575 -86.1247 336° Northwest 334 384 29,400 -840 Descending Indianapolis Center
03:03PM 39.0467 -86.1761 336° Northwest 347 399 28,400 -720 Descending Indianapolis Center
03:04PM 39.1517 -86.2378 336° Northwest 347 399 28,000 -240 Descending Indianapolis Center
03:05PM 39.2408 -86.2881 336° Northwest 347 399 28,000 -120 Level Indianapolis Center
03:06PM 39.3300 -86.3394 336° Northwest 348 400 27,800 -600 Descending Indianapolis Center
03:07PM 39.4203 -86.3925 336° Northwest 351 404 26,800 -900 Descending Indianapolis Center
03:08PM 39.5097 -86.4450 336° Northwest 352 405 26,000 -420 Descending Indianapolis Center
03:09PM 39.6006 -86.4989 335° Northwest 352 405 26,000  Level Indianapolis Center
03:10PM 39.6883 -86.5519 335° Northwest 351 404 26,000  Level Indianapolis Center
03:11PM 39.7747 -86.6017 336° Northwest 340 391 26,000  Level Indianapolis Center
03:12PM 39.8633 -86.6550 335° Northwest 343 395 26,000 -480 Level Indianapolis Center
03:13PM 39.9711 -86.7189 336° Northwest 347 399 25,100 -1,260 Descending Indianapolis Center
03:14PM 40.0667 -86.7750 336° Northwest 369 425 23,500 -1,680 Descending Indianapolis Center
03:15PM 40.1383 -86.8172 336° Northwest 361 415 22,100 -1,500 Descending Chicago Center
03:16PM 40.2222 -86.8675 335° Northwest 336 387 20,800 -1,260 Descending Chicago Center
03:17PM 40.3056 -86.9181 335° Northwest 333 383 19,500 -1,320 Descending Chicago Center
03:18PM 40.3894 -86.9689 335° Northwest 331 381 18,100 -1,320 Descending Chicago Center
03:19PM 40.4717 -87.0172 336° Northwest 327 376 16,900 -1,200 Descending Chicago Center
03:20PM 40.5494 -87.0647 335° Northwest 312 359 15,700 -1,200 Descending Chicago Center
03:21PM 40.6356 -87.1094 338° Northwest 307 353 14,500 -1,200 Descending Chicago Center
03:22PM 40.7139 -87.1503 338° Northwest 305 351 13,300 -1,320 Descending Chicago Center
03:23PM 40.8133 -87.2028 338° Northwest 319 367 11,800 -1,440 Descending Chicago Center
03:24PM 40.8925 -87.2453 338° Northwest 311 358 10,400 -900 Descending Chicago Center
03:25PM 40.9706 -87.2847 339° North 302 348 10,000 -300 Descending Chicago Center
03:26PM 41.0450 -87.3231 339° North 291 335 9,800 -840 Descending Chicago Center
03:27PM 41.1100 -87.3228 360° North 242 278 8,300 -1,500 Descending Chicago Center
03:28PM 41.1800 -87.3161 North 249 287 6,800 -1,620 Descending Chicago Center
03:29PM 41.2633 -87.3086 North 258 297 5,000 -1,380 Descending Chicago Center
03:30PM 41.3311 -87.3008 North 253 291 4,000 -540 Descending Chicago Center
03:31PM 41.3961 -87.2936 North 245 282 4,000  Level Chicago Center
03:32PM 41.4617 -87.2872 North 240 276 4,000  Level Chicago Center
03:34PM 41.5267 -87.2808 North 238 274 4,000  Level Chicago Center
03:35PM 41.5914 -87.2922 353° North 240 276 4,000  Level Chicago Center
03:36PM 41.6531 -87.3236 339° North 240 276 4,000 -540 Level Chicago Center
03:37PM 41.7272 -87.3603 340° North 239 275 3,000 -540 Descending Chicago Center
03:38PM 41.7864 -87.3911 339° North 235 270 3,000  Level Chicago Center
03:39PM 41.8461 -87.4161 343° North 231 266 3,000  Level Chicago Center
03:40PM 41.9022 -87.4522 334° Northwest 227 261 3,000  Level Chicago Center
03:41PM 41.9581 -87.4911 333° Northwest 227 261 3,000  Level Chicago Center
03:42PM 42.0117 -87.5344 329° Northwest 226 260 3,000  Level Chicago Center
03:43PM 42.0619 -87.5883 321° Northwest 228 262 3,000 -120 Level Chicago Center
03:44PM 42.1225 -87.6547 321° Northwest 232 267 2,800 -300 Descending Chicago Center
03:45PM 42.1731 -87.7094 321° Northwest 233 268 2,500 -180 Descending Chicago Center
03:46PM 42.2225 -87.7625 322° Northwest 232 267 2,500  Level Chicago Center
03:47PM 42.2708 -87.8139 322° Northwest 228 262 2,500  Level Chicago Center
03:48PM 42.2869 -87.8900 286° West 222 255 2,500 -60 Level Chicago Center
03:49PM 42.2842 -87.9603 267° West 223 257 2,400  Descending Chicago Center
03:50PM 42.2369 -87.9703 189° South 217 250 2,500 -180 Climbing Chicago Center
03:51PM 42.1856 -87.9481 162° South 181 208 2,100 -300 Descending Chicago Center
03:52PM 42.1397 -87.9475 179° South 178 205 2,000 -120 Descending Chicago Center